createdAt,value
2019-06-27T00:01:04.738Z,88.81
2019-06-27T00:03:33.268Z,89.33
2019-06-27T00:06:01.503Z,89.72
2019-06-27T00:08:29.710Z,89.84
2019-06-27T00:10:58.023Z,90.25
2019-06-27T00:13:26.219Z,90.88
2019-06-27T00:15:54.758Z,91.21
2019-06-27T00:18:23.382Z,91.44
2019-06-27T00:20:53.166Z,91.05
2019-06-27T00:23:21.814Z,90.81
2019-06-27T00:25:50.424Z,90.98
2019-06-27T00:28:18.983Z,91.12
2019-06-27T00:30:47.612Z,91.33
2019-06-27T00:33:15.957Z,91.37
2019-06-27T00:35:44.531Z,91.33
2019-06-27T00:38:12.807Z,91.21
2019-06-27T00:40:40.977Z,91.37
2019-06-27T00:43:09.458Z,91.32
2019-06-27T00:45:37.709Z,91.11
2019-06-27T00:48:05.281Z,90.92
2019-06-27T00:50:33.216Z,90.49
2019-06-27T00:53:01.747Z,90.44
2019-06-27T00:55:29.588Z,90.64
2019-06-27T00:57:58.244Z,90.79
2019-06-27T01:00:26.837Z,90.90
2019-06-27T01:02:55.123Z,91.16
2019-06-27T01:05:22.916Z,91.23
2019-06-27T01:07:51.166Z,91.97
2019-06-27T01:10:19.358Z,92.14
2019-06-27T01:12:47.281Z,92.25
2019-06-27T01:15:15.400Z,92.60
2019-06-27T01:17:43.988Z,92.29
2019-06-27T01:20:13.367Z,91.72
2019-06-27T01:22:42.001Z,91.21
2019-06-27T01:25:09.543Z,90.34
2019-06-27T01:27:38.142Z,89.70
2019-06-27T01:30:07.120Z,89.14
2019-06-27T01:32:35.718Z,88.97
2019-06-27T01:35:04.470Z,88.58
2019-06-27T01:37:32.779Z,88.43
2019-06-27T01:40:00.678Z,88.41
2019-06-27T01:42:28.942Z,88.40
2019-06-27T01:45:01.834Z,88.37
2019-06-27T01:47:30.445Z,89.02
2019-06-27T01:49:58.935Z,89.63
2019-06-27T01:52:27.097Z,90.09
2019-06-27T01:54:54.564Z,90.75
2019-06-27T01:57:22.492Z,90.30
2019-06-27T01:59:51.123Z,90.57
2019-06-27T02:02:19.318Z,90.95
2019-06-27T02:04:47.572Z,91.15
2019-06-27T02:07:15.784Z,91.62
2019-06-27T02:09:44.324Z,91.66
2019-06-27T02:12:12.114Z,91.89
2019-06-27T02:14:40.383Z,91.90
2019-06-27T02:17:08.920Z,91.77
2019-06-27T02:19:37.265Z,90.77
2019-06-27T02:22:04.818Z,89.52
2019-06-27T02:24:32.775Z,89.84
2019-06-27T02:27:01.013Z,90.15
2019-06-27T02:29:29.579Z,89.92
2019-06-27T02:31:58.089Z,90.46
2019-06-27T02:34:26.645Z,90.51
2019-06-27T02:36:55.370Z,90.68
2019-06-27T02:39:23.944Z,91.26
2019-06-27T02:41:51.729Z,90.81
2019-06-27T02:44:20.314Z,90.82
2019-06-27T02:46:48.629Z,91.28
2019-06-27T02:49:16.864Z,90.82
2019-06-27T02:51:44.777Z,90.74
2019-06-27T02:54:12.713Z,90.72
2019-06-27T02:56:41.390Z,90.89
2019-06-27T02:59:09.304Z,91.10
2019-06-27T03:01:37.866Z,91.39
2019-06-27T03:04:05.786Z,91.69
2019-06-27T03:06:34.039Z,91.86
2019-06-27T03:09:02.630Z,91.42
2019-06-27T03:11:30.992Z,91.56
2019-06-27T03:13:59.196Z,91.82
2019-06-27T03:16:27.781Z,91.89
2019-06-27T03:18:56.169Z,92.32
2019-06-27T03:21:24.451Z,91.98
2019-06-27T03:23:52.903Z,91.83
2019-06-27T03:26:21.115Z,91.86
2019-06-27T03:28:53.174Z,92.03
2019-06-27T03:31:19.521Z,91.88
2019-06-27T03:33:48.053Z,91.15
2019-06-27T03:36:16.290Z,91.46
2019-06-27T03:38:44.492Z,91.71
2019-06-27T03:41:13.117Z,91.09
2019-06-27T03:43:41.639Z,91.45
2019-06-27T03:46:09.926Z,91.72
2019-06-27T03:48:38.528Z,91.49
2019-06-27T03:51:06.722Z,91.65
2019-06-27T03:53:35.277Z,91.93
2019-06-27T03:56:03.558Z,92.10
2019-06-27T03:58:31.439Z,92.51
2019-06-27T04:00:58.974Z,92.75
2019-06-27T04:03:26.551Z,91.68
2019-06-27T04:05:54.450Z,91.60
2019-06-27T04:08:23.033Z,91.60
2019-06-27T04:10:51.669Z,92.00
2019-06-27T04:13:19.501Z,92.12
2019-06-27T04:15:48.073Z,92.00
2019-06-27T04:18:16.682Z,91.88
2019-06-27T04:20:44.542Z,92.01
2019-06-27T04:23:12.755Z,92.07
2019-06-27T04:25:41.006Z,92.04
2019-06-27T04:28:08.600Z,92.20
2019-06-27T04:30:36.752Z,92.37
2019-06-27T04:33:05.032Z,92.45
2019-06-27T04:35:33.731Z,92.49
2019-06-27T04:38:01.903Z,92.44
2019-06-27T04:40:30.395Z,92.46
2019-06-27T04:42:58.624Z,91.68
2019-06-27T04:45:27.255Z,91.10
2019-06-27T04:47:55.194Z,90.69
2019-06-27T04:50:23.830Z,90.44
2019-06-27T04:52:52.112Z,90.21
2019-06-27T04:55:20.086Z,90.32
2019-06-27T04:57:48.003Z,90.37
2019-06-27T05:00:24.756Z,90.24
2019-06-27T05:02:53.163Z,89.51
2019-06-27T05:05:21.741Z,89.00
2019-06-27T05:07:49.675Z,88.19
2019-06-27T05:10:18.265Z,88.08
2019-06-27T05:12:46.786Z,87.65
2019-06-27T05:15:14.942Z,86.89
2019-06-27T05:17:43.115Z,87.28
2019-06-27T05:20:11.477Z,87.79
2019-06-27T05:22:40.009Z,88.38
2019-06-27T05:25:07.734Z,88.72
2019-06-27T05:27:35.931Z,88.86
2019-06-27T05:30:09.230Z,89.13
2019-06-27T05:32:33.619Z,87.72
2019-06-27T05:35:02.260Z,87.42
2019-06-27T05:37:30.641Z,87.76
2019-06-27T05:39:58.231Z,88.02
2019-06-27T05:42:26.485Z,88.21
2019-06-27T05:44:55.015Z,88.53
2019-06-27T05:47:23.626Z,88.67
2019-06-27T05:49:51.518Z,88.55
2019-06-27T05:52:20.079Z,88.30
2019-06-27T05:54:47.972Z,87.43
2019-06-27T05:57:16.157Z,86.31
2019-06-27T05:59:44.770Z,86.24
2019-06-27T06:02:13.319Z,86.50
2019-06-27T06:04:41.921Z,85.10
2019-06-27T06:07:09.801Z,85.30
2019-06-27T06:09:37.325Z,85.54
2019-06-27T06:12:05.528Z,85.57
2019-06-27T06:14:34.049Z,85.33
2019-06-27T06:17:02.415Z,81.96
2019-06-27T06:19:30.277Z,81.15
2019-06-27T06:21:58.865Z,79.91
2019-06-27T06:24:27.031Z,80.14
2019-06-27T06:26:55.564Z,80.97
2019-06-27T06:29:23.392Z,81.36
2019-06-27T06:31:52.109Z,80.46
2019-06-27T06:34:20.227Z,79.68
2019-06-27T06:36:48.132Z,79.50
2019-06-27T06:39:15.978Z,80.13
2019-06-27T06:41:44.681Z,80.04
2019-06-27T06:44:12.172Z,79.91
2019-06-27T06:46:40.151Z,77.56
2019-06-27T06:49:08.011Z,77.97
2019-06-27T06:51:36.293Z,79.31
2019-06-27T06:54:04.594Z,80.26
2019-06-27T06:56:33.221Z,80.41
2019-06-27T06:59:01.858Z,79.74
2019-06-27T07:01:30.074Z,79.52
2019-06-27T07:03:58.805Z,80.76
2019-06-27T07:06:27.269Z,80.27
2019-06-27T07:08:55.928Z,80.69
2019-06-27T07:11:24.594Z,80.05
2019-06-27T07:13:53.199Z,77.81
2019-06-27T07:16:21.682Z,79.50
2019-06-27T07:18:50.367Z,77.96
2019-06-27T07:21:18.252Z,77.65
2019-06-27T07:23:46.770Z,77.28
2019-06-27T07:26:15.398Z,77.97
2019-06-27T07:28:43.787Z,78.60
2019-06-27T07:31:17.838Z,77.90
2019-06-27T07:33:42.835Z,77.80
2019-06-27T07:36:11.112Z,76.30
2019-06-27T07:38:39.135Z,76.96
2019-06-27T07:41:06.959Z,78.43
2019-06-27T07:43:35.505Z,78.82
2019-06-27T07:46:03.408Z,78.67
2019-06-27T07:48:31.285Z,77.86
2019-06-27T07:50:59.512Z,78.63
2019-06-27T07:53:27.805Z,77.71
2019-06-27T07:55:55.731Z,77.80
2019-06-27T07:58:24.374Z,79.19
2019-06-27T08:00:52.611Z,78.82
2019-06-27T08:03:21.382Z,78.98
2019-06-27T08:05:49.691Z,79.60
2019-06-27T08:08:17.956Z,79.48
2019-06-27T08:10:46.205Z,78.88
2019-06-27T08:13:14.976Z,78.70
2019-06-27T08:15:43.411Z,77.94
2019-06-27T08:18:12.025Z,80.31
2019-06-27T08:20:40.793Z,78.33
2019-06-27T08:23:09.160Z,78.69
2019-06-27T08:25:37.488Z,78.68
2019-06-27T08:28:05.385Z,78.79
2019-06-27T08:30:33.315Z,78.83
2019-06-27T08:33:01.143Z,77.07
2019-06-27T08:35:33.422Z,77.29
2019-06-27T08:38:00.439Z,76.87
2019-06-27T08:40:28.967Z,77.30
2019-06-27T08:42:56.810Z,76.47
2019-06-27T08:45:24.881Z,76.09
2019-06-27T08:47:52.722Z,75.76
2019-06-27T08:50:21.446Z,75.16
2019-06-27T08:52:49.385Z,75.53
2019-06-27T08:55:17.723Z,74.20
2019-06-27T08:57:45.574Z,75.29
2019-06-27T09:00:13.310Z,74.98
2019-06-27T09:02:41.282Z,75.07
2019-06-27T09:05:09.155Z,76.44
2019-06-27T09:07:37.888Z,74.66
2019-06-27T09:10:06.542Z,73.77
2019-06-27T09:12:34.406Z,72.75
2019-06-27T09:15:02.663Z,73.83
2019-06-27T09:17:31.021Z,73.13
2019-06-27T09:19:59.780Z,71.58
2019-06-27T09:22:28.140Z,72.49
2019-06-27T09:24:56.440Z,72.25
2019-06-27T09:27:24.624Z,71.10
2019-06-27T09:29:53.214Z,72.61
2019-06-27T09:32:25.951Z,70.23
2019-06-27T09:34:51.946Z,70.91
2019-06-27T09:37:20.508Z,69.90
2019-06-27T09:39:48.711Z,71.09
2019-06-27T09:42:17.291Z,69.85
2019-06-27T09:44:45.665Z,68.93
2019-06-27T09:47:14.209Z,70.12
2019-06-27T09:49:42.551Z,70.82
2019-06-27T09:52:10.718Z,68.58
2019-06-27T09:54:38.908Z,71.18
2019-06-27T09:57:07.167Z,69.98
2019-06-27T09:59:35.758Z,71.33
2019-06-27T10:02:04.063Z,68.45
2019-06-27T10:04:31.985Z,68.16
2019-06-27T10:07:00.307Z,68.42
2019-06-27T10:09:29.063Z,68.31
2019-06-27T10:11:56.678Z,67.99
2019-06-27T10:14:25.168Z,67.14
2019-06-27T10:16:53.146Z,67.51
2019-06-27T10:19:21.163Z,67.73
2019-06-27T10:21:49.486Z,66.93
2019-06-27T10:24:17.776Z,68.57
2019-06-27T10:26:45.325Z,67.84
2019-06-27T10:29:13.268Z,66.72
2019-06-27T10:31:41.707Z,67.55
2019-06-27T10:34:10.409Z,69.06
2019-06-27T10:36:39.078Z,66.56
2019-06-27T10:39:06.261Z,67.11
2019-06-27T10:41:34.157Z,66.74
2019-06-27T10:44:02.492Z,66.75
2019-06-27T10:46:30.780Z,65.16
2019-06-27T10:48:59.063Z,67.49
2019-06-27T10:51:27.647Z,64.73
2019-06-27T10:53:56.249Z,64.58
2019-06-27T10:56:24.519Z,65.62
2019-06-27T10:58:52.823Z,65.50
2019-06-27T11:01:21.410Z,65.31
2019-06-27T11:03:49.730Z,65.43
2019-06-27T11:06:17.619Z,63.51
2019-06-27T11:08:46.230Z,61.02
2019-06-27T11:11:14.105Z,65.00
2019-06-27T11:13:57.975Z,63.59
2019-06-27T11:16:13.233Z,60.94
2019-06-27T11:18:41.778Z,62.95
2019-06-27T11:21:13.668Z,64.11
2019-06-27T11:23:40.223Z,62.16
2019-06-27T11:26:09.640Z,62.38
2019-06-27T11:28:38.432Z,58.93
2019-06-27T11:31:07.033Z,58.63
2019-06-27T11:33:35.283Z,58.87
2019-06-27T11:36:03.701Z,58.57
2019-06-27T11:38:32.172Z,59.84
2019-06-27T11:41:00.119Z,61.28
2019-06-27T11:43:28.713Z,59.33
2019-06-27T11:45:57.320Z,56.96
2019-06-27T11:48:25.634Z,57.44
2019-06-27T11:50:54.208Z,56.74
2019-06-27T11:53:22.518Z,58.06
2019-06-27T11:55:50.864Z,57.42
2019-06-27T11:58:19.503Z,60.13
2019-06-27T12:00:47.832Z,59.86
2019-06-27T12:03:15.721Z,56.81
2019-06-27T12:05:43.997Z,57.71
2019-06-27T12:08:12.672Z,57.98
2019-06-27T12:10:40.961Z,59.42
2019-06-27T12:13:09.172Z,60.39
2019-06-27T12:15:37.432Z,59.79
2019-06-27T12:18:05.602Z,59.30
2019-06-27T12:20:33.168Z,60.36
2019-06-27T12:23:01.041Z,59.96
2019-06-27T12:25:29.383Z,59.59
2019-06-27T12:27:57.601Z,58.96
2019-06-27T12:30:26.364Z,59.86
2019-06-27T12:32:54.907Z,59.73
2019-06-27T12:35:23.164Z,60.77
2019-06-27T12:37:51.134Z,57.68
2019-06-27T12:40:19.248Z,53.87
2019-06-27T12:42:48.550Z,53.57
2019-06-27T12:45:17.331Z,53.02
2019-06-27T12:47:45.618Z,54.17
2019-06-27T12:50:16.103Z,52.43
2019-06-27T12:52:44.420Z,53.80
2019-06-27T12:55:12.184Z,54.70
2019-06-27T12:57:40.805Z,55.24
2019-06-27T13:00:09.810Z,51.94
2019-06-27T13:02:38.122Z,52.67
2019-06-27T13:05:07.042Z,54.32
2019-06-27T13:07:35.663Z,54.45
2019-06-27T13:10:03.591Z,53.76
2019-06-27T13:12:31.574Z,53.22
2019-06-27T13:14:59.832Z,54.11
2019-06-27T13:17:27.879Z,52.40
2019-06-27T13:19:55.652Z,52.21
2019-06-27T13:22:23.695Z,47.21
2019-06-27T13:24:51.996Z,49.82
2019-06-27T13:27:20.680Z,47.29
2019-06-27T13:29:48.580Z,47.74
2019-06-27T13:32:16.947Z,47.42
2019-06-27T13:34:45.105Z,42.90
2019-06-27T13:37:13.103Z,42.64
2019-06-27T13:39:41.397Z,40.74
2019-06-27T13:42:10.049Z,42.24
2019-06-27T13:44:38.338Z,41.64
2019-06-27T13:47:09.649Z,42.43
2019-06-27T13:49:37.899Z,41.40
2019-06-27T13:52:05.854Z,39.45
2019-06-27T13:54:34.432Z,36.49
2019-06-27T13:57:02.645Z,34.36
2019-06-27T13:59:30.905Z,34.32
2019-06-27T14:01:59.251Z,34.30
2019-06-27T14:04:27.155Z,34.17
2019-06-27T14:06:55.968Z,32.71
2019-06-27T14:09:24.601Z,34.41
2019-06-27T14:11:53.232Z,35.84
2019-06-27T14:14:20.882Z,35.98
2019-06-27T14:16:49.486Z,36.56
2019-06-27T14:21:40.500Z,34.77
2019-06-27T14:24:09.147Z,34.45
2019-06-27T14:26:37.821Z,34.26
2019-06-27T14:29:06.076Z,30.56
2019-06-27T14:31:34.659Z,33.54
2019-06-27T14:34:03.070Z,32.52
2019-06-27T14:36:31.264Z,33.79
2019-06-27T14:38:59.766Z,31.58
2019-06-27T14:41:28.006Z,31.50
2019-06-27T14:43:56.536Z,31.24
2019-06-27T14:46:24.099Z,30.79
2019-06-27T14:48:51.999Z,29.92
2019-06-27T14:51:19.929Z,30.06
2019-06-27T14:53:47.493Z,31.27
2019-06-27T14:56:16.149Z,31.90
2019-06-27T14:58:44.449Z,31.56
2019-06-27T15:01:12.581Z,31.51
2019-06-27T15:03:41.220Z,33.84
2019-06-27T15:06:12.231Z,31.83
2019-06-27T15:08:39.634Z,32.39
2019-06-27T15:11:07.515Z,32.90
2019-06-27T15:13:36.012Z,32.80
2019-06-27T15:16:11.708Z,33.25
2019-06-27T15:18:34.699Z,33.70
2019-06-27T15:21:03.334Z,33.95
2019-06-27T15:23:31.809Z,34.33
2019-06-27T15:26:00.128Z,35.55
2019-06-27T15:28:28.365Z,35.11
2019-06-27T15:30:56.638Z,37.26
2019-06-27T15:33:25.353Z,37.02
2019-06-27T15:35:53.639Z,38.67
2019-06-27T15:38:22.417Z,39.52
2019-06-27T15:40:50.801Z,38.57
2019-06-27T15:43:19.017Z,40.77
2019-06-27T15:45:47.404Z,41.95
2019-06-27T15:48:15.946Z,42.59
2019-06-27T15:50:44.524Z,41.49
2019-06-27T15:53:12.741Z,43.87
2019-06-27T15:55:40.610Z,43.28
2019-06-27T15:58:08.199Z,44.70
2019-06-27T16:00:39.323Z,44.08
2019-06-27T16:03:06.759Z,43.86
2019-06-27T16:05:35.086Z,44.86
2019-06-27T16:08:03.881Z,47.29
2019-06-27T16:10:32.105Z,46.85
2019-06-27T16:13:02.723Z,44.59
2019-06-27T16:15:31.134Z,46.34
2019-06-27T16:17:59.813Z,47.67
2019-06-27T16:20:27.620Z,50.73
2019-06-27T16:22:55.887Z,48.88
2019-06-27T16:25:24.390Z,49.96
2019-06-27T16:27:53.030Z,50.49
2019-06-27T16:30:21.559Z,50.09
2019-06-27T16:32:49.504Z,50.17
2019-06-27T16:35:18.025Z,50.24
2019-06-27T16:37:46.008Z,49.98
2019-06-27T16:40:14.252Z,52.05
2019-06-27T16:42:42.789Z,52.47
2019-06-27T16:45:11.060Z,52.74
2019-06-27T16:47:39.403Z,52.19
2019-06-27T16:50:07.685Z,53.29
2019-06-27T16:52:36.274Z,53.35
2019-06-27T16:55:05.385Z,52.88
2019-06-27T16:57:33.361Z,54.31
2019-06-27T17:00:01.638Z,54.90
2019-06-27T17:02:29.521Z,56.06
2019-06-27T17:04:58.153Z,54.68
2019-06-27T17:07:26.422Z,55.24
2019-06-27T17:09:55.058Z,55.66
2019-06-27T17:12:23.950Z,56.34
2019-06-27T17:14:52.246Z,55.42
2019-06-27T17:17:20.874Z,57.30
2019-06-27T17:19:49.440Z,57.75
2019-06-27T17:22:18.120Z,57.46
2019-06-27T17:24:46.418Z,58.61
2019-06-27T17:27:15.026Z,58.27
2019-06-27T17:29:43.679Z,58.49
2019-06-27T17:32:12.413Z,59.14
2019-06-27T17:34:40.803Z,59.04
2019-06-27T17:37:09.141Z,59.42
2019-06-27T17:39:37.457Z,60.11
2019-06-27T17:42:05.835Z,60.35
2019-06-27T17:44:33.749Z,61.10
2019-06-27T17:47:02.369Z,61.31
2019-06-27T17:49:30.641Z,62.02
2019-06-27T17:51:59.247Z,61.81
2019-06-27T17:54:27.864Z,62.25
2019-06-27T17:56:55.821Z,62.69
2019-06-27T17:59:23.463Z,62.64
2019-06-27T18:01:51.665Z,62.98
2019-06-27T18:04:20.138Z,63.77
2019-06-27T18:06:48.945Z,63.48
2019-06-27T18:09:17.640Z,64.64
2019-06-27T18:11:45.915Z,63.50
2019-06-27T18:14:14.241Z,64.62
2019-06-27T18:16:42.831Z,64.40
2019-06-27T18:19:10.661Z,64.58
2019-06-27T18:21:39.046Z,64.57
2019-06-27T18:24:07.829Z,65.63
2019-06-27T18:26:36.109Z,64.97
2019-06-27T18:29:04.632Z,66.60
2019-06-27T18:31:32.873Z,64.55
2019-06-27T18:34:01.267Z,63.75
2019-06-27T18:36:29.796Z,64.68
2019-06-27T18:38:57.638Z,63.94
2019-06-27T18:41:26.331Z,63.98
2019-06-27T18:43:54.936Z,63.39
2019-06-27T18:46:23.482Z,63.85
2019-06-27T18:48:52.277Z,62.90
2019-06-27T18:51:20.561Z,62.89
2019-06-27T18:53:48.542Z,63.58
2019-06-27T18:56:16.392Z,62.67
2019-06-27T18:58:45.038Z,62.36
2019-06-27T19:01:13.305Z,60.52
2019-06-27T19:03:41.912Z,61.84
2019-06-27T19:06:10.479Z,62.09
2019-06-27T19:08:38.335Z,59.99
2019-06-27T19:11:05.906Z,60.96
2019-06-27T19:13:34.313Z,60.04
2019-06-27T19:16:03.049Z,59.06
2019-06-27T19:18:49.084Z,59.19
2019-06-27T19:21:22.485Z,59.60
2019-06-27T19:23:59.251Z,59.15
2019-06-27T19:26:27.837Z,59.24
2019-06-27T19:28:56.526Z,59.28
2019-06-27T19:31:25.221Z,60.02
2019-06-27T19:33:53.297Z,59.10
2019-06-27T19:36:21.167Z,58.63
2019-06-27T19:38:49.750Z,58.03
2019-06-27T19:41:18.184Z,59.13
2019-06-27T19:43:46.858Z,57.35
2019-06-27T19:46:14.724Z,59.00
2019-06-27T19:48:45.616Z,58.72
2019-06-27T19:51:13.125Z,57.51
2019-06-27T19:53:41.327Z,57.74
2019-06-27T19:56:09.203Z,58.90
2019-06-27T19:58:37.805Z,56.43
2019-06-27T20:01:06.145Z,57.80
2019-06-27T20:03:34.838Z,57.49
2019-06-27T20:06:03.335Z,59.36
2019-06-27T20:08:31.290Z,59.21
2019-06-27T20:10:59.467Z,58.27
2019-06-27T20:13:27.062Z,60.12
2019-06-27T20:15:55.716Z,58.22
2019-06-27T20:18:23.792Z,59.11
2019-06-27T20:20:51.985Z,58.98
2019-06-27T20:23:20.269Z,59.02
2019-06-27T20:25:48.954Z,61.08
2019-06-27T20:28:17.644Z,60.33
2019-06-27T20:30:45.940Z,60.65
2019-06-27T20:33:13.907Z,61.19
2019-06-27T20:35:42.557Z,59.59
2019-06-27T20:38:11.096Z,60.16
2019-06-27T20:40:39.370Z,60.73
2019-06-27T20:43:07.861Z,61.82
2019-06-27T20:45:36.338Z,61.74
2019-06-27T20:48:05.034Z,62.15
2019-06-27T20:50:33.271Z,62.92
2019-06-27T20:53:01.637Z,63.56
2019-06-27T20:55:29.938Z,64.41
2019-06-27T20:57:58.201Z,63.86
2019-06-27T21:00:26.473Z,63.85
2019-06-27T21:02:54.348Z,65.88
2019-06-27T21:05:22.289Z,64.47
2019-06-27T21:07:50.581Z,65.18
2019-06-27T21:10:19.424Z,65.59
2019-06-27T21:12:47.245Z,66.03
2019-06-27T21:15:15.408Z,64.73
2019-06-27T21:17:43.703Z,65.34
2019-06-27T21:20:11.946Z,65.23
2019-06-27T21:22:40.469Z,66.34
2019-06-27T21:25:09.314Z,66.42
2019-06-27T21:27:37.185Z,66.23
2019-06-27T21:30:06.500Z,66.66
2019-06-27T21:32:35.167Z,66.13
2019-06-27T21:35:03.110Z,66.25
2019-06-27T21:37:31.641Z,66.04
2019-06-27T21:40:00.292Z,65.40
2019-06-27T21:42:28.979Z,65.59
2019-06-27T21:44:56.842Z,64.42
2019-06-27T21:47:25.427Z,63.90
2019-06-27T21:49:53.314Z,62.81
2019-06-27T21:52:21.175Z,63.76
2019-06-27T21:54:49.097Z,61.42
2019-06-27T21:57:17.239Z,62.27
2019-06-27T21:59:45.391Z,60.66
2019-06-27T22:02:13.949Z,61.66
2019-06-27T22:04:42.194Z,59.99
2019-06-27T22:07:10.459Z,60.23
2019-06-27T22:09:38.675Z,60.38
2019-06-27T22:12:07.262Z,60.28
2019-06-27T22:14:35.435Z,59.20
2019-06-27T22:17:03.702Z,58.67
2019-06-27T22:19:32.291Z,57.09
2019-06-27T22:22:00.807Z,55.26
2019-06-27T22:24:28.659Z,55.07
2019-06-27T22:26:56.182Z,54.87
2019-06-27T22:29:24.501Z,55.54
2019-06-27T22:31:52.368Z,55.12
2019-06-27T22:34:20.517Z,55.11
2019-06-27T22:36:48.718Z,56.42
2019-06-27T22:39:40.519Z,56.83
2019-06-27T22:42:23.052Z,55.83
2019-06-27T22:45:09.661Z,57.16
2019-06-27T22:47:55.957Z,58.66
2019-06-27T22:50:42.028Z,60.39
2019-06-27T22:53:14.759Z,57.85
2019-06-27T22:55:43.407Z,58.74
2019-06-27T22:58:12.034Z,60.17
2019-06-27T23:00:39.856Z,60.07
2019-06-27T23:03:07.330Z,62.91
2019-06-27T23:05:36.035Z,64.14
2019-06-27T23:08:04.214Z,61.12
2019-06-27T23:10:32.484Z,63.85
2019-06-27T23:13:00.872Z,63.40
2019-06-27T23:15:29.043Z,64.65
2019-06-27T23:17:57.659Z,62.76
2019-06-27T23:20:26.303Z,64.06
2019-06-27T23:22:54.126Z,63.34
2019-06-27T23:25:21.978Z,59.64
2019-06-27T23:27:50.262Z,61.22
2019-06-27T23:30:18.203Z,61.89
2019-06-27T23:32:46.419Z,66.22
2019-06-27T23:35:14.392Z,66.70
2019-06-27T23:37:41.943Z,66.88
2019-06-27T23:40:14.469Z,67.01
2019-06-27T23:42:40.777Z,65.55
2019-06-27T23:45:09.977Z,66.87
2019-06-27T23:47:38.560Z,67.53
2019-06-27T23:50:07.675Z,68.65
2019-06-27T23:52:35.955Z,69.45
2019-06-27T23:55:04.328Z,68.98
2019-06-27T23:57:31.825Z,68.45
